createdAt,value
2019-02-17T00:02:11.745Z,117.70
2019-02-17T00:04:42.433Z,116.27
2019-02-17T00:07:13.001Z,120.60
2019-02-17T00:09:43.493Z,118.93
2019-02-17T00:12:14.001Z,119.27
2019-02-17T00:14:44.494Z,119.00
2019-02-17T00:17:15.005Z,116.97
2019-02-17T00:19:48.459Z,118.60
2019-02-17T00:22:19.373Z,118.20
2019-02-17T00:24:50.049Z,120.97
2019-02-17T00:27:20.716Z,116.87
2019-02-17T00:29:51.296Z,117.40
2019-02-17T00:32:21.758Z,118.70
2019-02-17T00:34:52.376Z,117.87
2019-02-17T00:37:22.772Z,118.87
2019-02-17T00:39:53.314Z,120.57
2019-02-17T00:42:23.825Z,119.67
2019-02-17T00:44:54.246Z,119.83
2019-02-17T00:47:24.729Z,119.13
2019-02-17T00:49:56.484Z,120.57
2019-02-17T00:52:27.945Z,119.70
2019-02-17T00:54:58.465Z,117.13
2019-02-17T00:57:28.935Z,119.80
2019-02-17T00:59:59.429Z,118.77
2019-02-17T01:02:30.071Z,118.03
2019-02-17T01:05:00.658Z,119.93
2019-02-17T01:07:31.518Z,117.53
2019-02-17T01:10:02.072Z,118.93
2019-02-17T01:12:32.605Z,117.63
2019-02-17T01:15:03.207Z,119.30
2019-02-17T01:17:33.796Z,117.30
2019-02-17T01:20:04.570Z,119.70
2019-02-17T01:22:35.022Z,118.40
2019-02-17T01:25:05.822Z,119.97
2019-02-17T01:27:36.350Z,121.03
2019-02-17T01:30:08.045Z,119.57
2019-02-17T01:32:38.560Z,119.00
2019-02-17T01:35:09.097Z,116.77
2019-02-17T01:37:40.171Z,118.47
2019-02-17T01:40:10.627Z,117.87
2019-02-17T01:42:41.287Z,117.70
2019-02-17T01:45:12.032Z,116.40
2019-02-17T01:47:42.498Z,116.23
2019-02-17T01:50:12.959Z,114.97
2019-02-17T01:52:43.432Z,116.30
2019-02-17T01:55:13.959Z,115.87
2019-02-17T01:57:44.376Z,115.67
2019-02-17T02:00:15.500Z,116.97
2019-02-17T02:02:46.074Z,117.70
2019-02-17T02:05:16.924Z,118.33
2019-02-17T02:07:47.468Z,117.47
2019-02-17T02:10:18.122Z,117.67
2019-02-17T02:12:48.537Z,118.00
2019-02-17T02:15:19.085Z,117.00
2019-02-17T02:17:49.605Z,115.80
2019-02-17T02:20:20.199Z,116.00
2019-02-17T02:22:51.028Z,114.87
2019-02-17T02:25:21.742Z,115.47
2019-02-17T02:27:52.443Z,115.03
2019-02-17T02:30:23.078Z,115.20
2019-02-17T02:32:53.817Z,115.27
2019-02-17T02:35:24.219Z,116.07
2019-02-17T02:37:54.790Z,114.40
2019-02-17T02:40:25.501Z,113.90
2019-02-17T02:42:55.987Z,114.83
2019-02-17T02:45:26.423Z,114.10
2019-02-17T02:47:56.920Z,114.17
2019-02-17T02:50:27.545Z,114.63
2019-02-17T02:52:58.361Z,114.97
2019-02-17T02:55:28.852Z,115.77
2019-02-17T02:57:59.418Z,114.50
2019-02-17T03:00:29.994Z,116.07
2019-02-17T03:03:00.504Z,114.60
2019-02-17T03:05:31.008Z,114.00
2019-02-17T03:08:01.588Z,115.40
2019-02-17T03:10:32.038Z,115.00
2019-02-17T03:13:02.536Z,115.07
2019-02-17T03:15:33.183Z,113.70
2019-02-17T03:18:03.631Z,114.17
2019-02-17T03:20:34.105Z,114.70
2019-02-17T03:23:04.565Z,113.93
2019-02-17T03:25:34.997Z,113.33
2019-02-17T03:28:05.568Z,114.47
2019-02-17T03:30:36.045Z,113.03
2019-02-17T03:33:06.547Z,113.13
2019-02-17T03:35:36.981Z,113.23
2019-02-17T03:38:07.471Z,112.27
2019-02-17T03:40:38.228Z,112.73
2019-02-17T03:43:08.841Z,111.93
2019-02-17T03:45:39.484Z,111.47
2019-02-17T03:48:09.992Z,112.63
2019-02-17T03:50:40.704Z,113.70
2019-02-17T03:53:11.245Z,113.40
2019-02-17T03:55:43.244Z,112.97
2019-02-17T03:58:13.680Z,113.63
2019-02-17T04:00:44.085Z,111.60
2019-02-17T04:03:14.665Z,111.67
2019-02-17T04:05:45.160Z,112.67
2019-02-17T04:08:15.736Z,111.37
2019-02-17T04:10:46.333Z,112.83
2019-02-17T04:13:16.919Z,113.70
2019-02-17T04:15:47.887Z,111.60
2019-02-17T04:18:18.429Z,112.07
2019-02-17T04:20:49.128Z,111.93
2019-02-17T04:23:30.396Z,111.83
2019-02-17T04:25:55.617Z,110.50
2019-02-17T04:28:26.204Z,110.63
2019-02-17T04:30:56.669Z,110.13
2019-02-17T04:33:27.240Z,111.43
2019-02-17T04:35:57.653Z,110.73
2019-02-17T04:38:28.275Z,112.50
2019-02-17T04:41:00.530Z,110.27
2019-02-17T04:43:32.658Z,110.97
2019-02-17T04:46:03.040Z,112.47
2019-02-17T04:48:33.598Z,111.63
2019-02-17T04:51:04.083Z,111.53
2019-02-17T04:53:34.565Z,112.77
2019-02-17T04:56:05.088Z,111.70
2019-02-17T04:58:36.675Z,112.33
2019-02-17T05:01:07.179Z,110.17
2019-02-17T05:03:37.927Z,110.57
2019-02-17T05:06:09.501Z,109.87
2019-02-17T05:08:40.252Z,111.73
2019-02-17T05:11:10.672Z,110.87
2019-02-17T05:13:41.120Z,110.63
2019-02-17T05:16:11.613Z,109.70
2019-02-17T05:18:42.111Z,110.63
2019-02-17T05:21:12.736Z,110.37
2019-02-17T05:23:43.172Z,111.13
2019-02-17T05:26:13.704Z,110.33
2019-02-17T05:28:44.252Z,109.53
2019-02-17T05:31:14.667Z,109.90
2019-02-17T05:33:45.331Z,110.37
2019-02-17T05:36:15.930Z,109.97
2019-02-17T05:38:46.486Z,111.20
2019-02-17T05:41:17.080Z,109.83
2019-02-17T05:43:47.531Z,111.83
2019-02-17T05:46:18.168Z,110.03
2019-02-17T05:48:48.627Z,111.80
2019-02-17T05:51:19.244Z,111.67
2019-02-17T05:53:49.973Z,110.43
2019-02-17T05:56:20.458Z,110.67
2019-02-17T05:58:51.127Z,112.00
2019-02-17T06:01:22.646Z,110.97
2019-02-17T06:03:53.183Z,110.30
2019-02-17T06:06:23.701Z,110.50
2019-02-17T06:08:54.130Z,110.63
2019-02-17T06:11:24.560Z,109.97
2019-02-17T06:13:55.301Z,112.30
2019-02-17T06:16:25.766Z,110.30
2019-02-17T06:18:56.243Z,111.40
2019-02-17T06:21:26.915Z,109.67
2019-02-17T06:23:57.475Z,110.90
2019-02-17T06:26:27.934Z,109.93
2019-02-17T06:28:58.464Z,110.03
2019-02-17T06:31:28.825Z,108.30
2019-02-17T06:33:59.333Z,109.70
2019-02-17T06:36:29.830Z,108.83
2019-02-17T06:39:00.270Z,110.40
2019-02-17T06:41:30.764Z,111.77
2019-02-17T06:44:01.294Z,110.47
2019-02-17T06:46:42.346Z,110.07
2019-02-17T06:49:13.081Z,109.80
2019-02-17T06:51:43.748Z,108.80
2019-02-17T06:54:14.324Z,107.03
2019-02-17T06:56:49.676Z,105.57
2019-02-17T06:59:20.184Z,109.90
2019-02-17T07:01:50.694Z,107.53
2019-02-17T07:04:25.722Z,108.27
2019-02-17T07:07:00.434Z,108.70
2019-02-17T07:09:30.870Z,107.17
2019-02-17T07:12:01.352Z,109.73
2019-02-17T07:14:31.889Z,109.43
2019-02-17T07:17:02.260Z,109.97
2019-02-17T07:19:32.703Z,110.83
2019-02-17T07:22:03.101Z,109.40
2019-02-17T07:24:33.600Z,109.87
2019-02-17T07:27:04.414Z,110.27
2019-02-17T07:29:34.858Z,111.47
2019-02-17T07:32:05.332Z,109.33
2019-02-17T07:34:35.824Z,109.70
2019-02-17T07:37:06.312Z,107.63
2019-02-17T07:39:36.910Z,107.73
2019-02-17T07:42:09.512Z,107.77
2019-02-17T07:44:40.456Z,108.67
2019-02-17T07:47:11.025Z,106.90
2019-02-17T07:49:41.468Z,108.30
2019-02-17T07:52:12.003Z,107.63
2019-02-17T07:54:43.043Z,107.27
2019-02-17T07:57:13.554Z,107.47
2019-02-17T07:59:44.111Z,109.80
2019-02-17T08:02:14.938Z,108.17
2019-02-17T08:04:45.476Z,108.77
2019-02-17T08:07:18.704Z,109.47
2019-02-17T08:09:49.176Z,111.00
2019-02-17T08:12:19.744Z,116.40
2019-02-17T08:14:50.486Z,118.87
2019-02-17T08:17:20.908Z,115.53
2019-02-17T08:19:51.363Z,119.13
2019-02-17T08:22:21.810Z,117.80
2019-02-17T08:24:52.400Z,121.10
2019-02-17T08:27:22.913Z,120.20
2019-02-17T08:29:53.439Z,120.20
2019-02-17T08:32:23.975Z,122.57
2019-02-17T08:34:54.445Z,122.17
2019-02-17T08:37:24.921Z,119.67
2019-02-17T08:39:55.452Z,122.97
2019-02-17T08:42:25.973Z,120.67
2019-02-17T08:44:56.481Z,124.13
2019-02-17T08:47:26.964Z,122.37
2019-02-17T08:49:57.532Z,121.23
2019-02-17T08:52:27.994Z,121.10
2019-02-17T08:54:58.533Z,122.67
2019-02-17T08:57:29.063Z,122.27
2019-02-17T08:59:59.693Z,125.87
2019-02-17T09:02:30.615Z,125.53
2019-02-17T09:05:01.279Z,122.57
2019-02-17T09:07:31.951Z,125.67
2019-02-17T09:10:12.072Z,126.57
2019-02-17T09:12:42.877Z,127.20
2019-02-17T09:15:14.450Z,125.57
2019-02-17T09:17:45.086Z,127.17
2019-02-17T09:20:15.656Z,128.07
2019-02-17T09:22:47.096Z,126.33
2019-02-17T09:25:17.609Z,127.93
2019-02-17T09:27:48.094Z,128.67
2019-02-17T09:30:18.563Z,124.37
2019-02-17T09:32:49.086Z,126.73
2019-02-17T09:35:19.562Z,124.40
2019-02-17T09:37:50.048Z,126.00
2019-02-17T09:40:20.827Z,124.40
2019-02-17T09:42:51.557Z,125.73
2019-02-17T09:45:23.261Z,122.87
2019-02-17T09:47:53.716Z,125.53
2019-02-17T09:50:24.097Z,123.57
2019-02-17T09:52:54.729Z,125.73
2019-02-17T09:55:25.112Z,125.40
2019-02-17T09:57:55.622Z,126.07
2019-02-17T10:00:26.388Z,126.57
2019-02-17T10:02:57.048Z,125.70
2019-02-17T10:05:27.754Z,123.63
2019-02-17T10:07:58.750Z,126.70
2019-02-17T10:10:29.427Z,124.43
2019-02-17T10:13:01.370Z,125.07
2019-02-17T10:15:34.763Z,123.20
2019-02-17T10:18:05.436Z,121.27
2019-02-17T10:20:36.022Z,123.23
2019-02-17T10:23:06.668Z,122.50
2019-02-17T10:25:37.286Z,119.70
2019-02-17T10:28:09.393Z,120.57
2019-02-17T10:30:39.891Z,123.77
2019-02-17T10:33:10.636Z,122.47
2019-02-17T10:35:41.348Z,124.57
2019-02-17T10:38:12.169Z,125.23
2019-02-17T10:40:42.704Z,125.13
2019-02-17T10:43:13.158Z,127.77
2019-02-17T10:45:43.672Z,124.23
2019-02-17T10:48:14.141Z,126.43
2019-02-17T10:50:45.155Z,123.47
2019-02-17T10:53:16.912Z,126.13
2019-02-17T10:55:47.632Z,124.33
2019-02-17T10:58:18.116Z,123.10
2019-02-17T11:00:48.599Z,127.57
2019-02-17T11:03:19.140Z,123.50
2019-02-17T11:05:49.664Z,125.83
2019-02-17T11:08:20.246Z,124.73
2019-02-17T11:10:50.983Z,123.30
2019-02-17T11:13:21.798Z,123.80
2019-02-17T11:15:52.314Z,123.03
2019-02-17T11:18:23.348Z,126.80
2019-02-17T11:20:53.726Z,125.20
2019-02-17T11:23:24.189Z,124.20
2019-02-17T11:25:54.789Z,122.83
2019-02-17T11:28:25.295Z,124.20
2019-02-17T11:30:55.902Z,126.87
2019-02-17T11:33:26.388Z,126.23
2019-02-17T11:35:57.210Z,123.40
2019-02-17T11:38:27.974Z,124.33
2019-02-17T11:40:58.576Z,126.90
2019-02-17T11:43:29.329Z,125.00
2019-02-17T11:46:00.043Z,125.90
2019-02-17T11:48:30.580Z,123.80
2019-02-17T11:51:01.058Z,124.63
2019-02-17T11:53:31.632Z,126.57
2019-02-17T11:56:02.020Z,121.67
2019-02-17T11:58:32.597Z,124.93
2019-02-17T12:01:05.266Z,125.30
2019-02-17T12:03:35.477Z,123.43
2019-02-17T12:06:06.035Z,123.87
2019-02-17T12:08:36.603Z,123.50
2019-02-17T12:11:07.114Z,122.73
2019-02-17T12:13:37.741Z,121.50
2019-02-17T12:16:08.373Z,123.03
2019-02-17T12:18:38.974Z,121.97
2019-02-17T12:21:18.112Z,123.10
2019-02-17T12:24:07.581Z,122.73
2019-02-17T12:27:03.043Z,122.80
2019-02-17T12:29:42.041Z,121.17
2019-02-17T12:32:12.488Z,122.57
2019-02-17T12:34:42.996Z,121.90
2019-02-17T12:37:13.457Z,121.23
2019-02-17T12:39:44.061Z,121.00
2019-02-17T12:42:14.540Z,124.80
2019-02-17T12:44:45.098Z,121.43
2019-02-17T12:47:17.671Z,122.57
2019-02-17T12:49:48.048Z,125.97
2019-02-17T12:52:18.474Z,124.77
2019-02-17T12:54:49.035Z,123.40
2019-02-17T12:57:19.788Z,124.40
2019-02-17T12:59:50.218Z,122.30
2019-02-17T13:02:20.682Z,127.03
2019-02-17T13:04:51.268Z,124.53
2019-02-17T13:07:21.722Z,122.70
2019-02-17T13:09:52.267Z,121.93
2019-02-17T13:12:22.817Z,121.07
2019-02-17T13:14:54.325Z,123.30
2019-02-17T13:17:24.788Z,122.70
2019-02-17T13:19:55.332Z,119.30
2019-02-17T13:22:25.756Z,123.60
2019-02-17T13:24:57.213Z,120.80
2019-02-17T13:27:27.880Z,120.37
2019-02-17T13:29:58.396Z,121.70
2019-02-17T13:32:28.947Z,119.63
2019-02-17T13:34:59.492Z,119.67
2019-02-17T13:37:30.385Z,118.33
2019-02-17T13:40:01.027Z,119.43
2019-02-17T13:42:31.803Z,122.60
2019-02-17T13:45:02.277Z,119.67
2019-02-17T13:47:33.829Z,115.40
2019-02-17T13:50:08.724Z,119.57
2019-02-17T13:52:39.089Z,118.03
2019-02-17T13:55:10.319Z,117.33
2019-02-17T13:57:41.037Z,119.63
2019-02-17T14:00:14.199Z,119.90
2019-02-17T14:02:44.761Z,120.73
2019-02-17T14:05:15.669Z,121.17
2019-02-17T14:07:46.119Z,119.37
2019-02-17T14:10:16.666Z,118.13
2019-02-17T14:12:47.222Z,122.67
2019-02-17T14:15:17.903Z,120.83
2019-02-17T14:17:51.197Z,122.27
2019-02-17T14:20:21.696Z,121.40
2019-02-17T14:22:53.958Z,122.07
2019-02-17T14:25:24.437Z,121.47
2019-02-17T14:27:55.184Z,118.07
2019-02-17T14:30:25.607Z,120.90
2019-02-17T14:32:56.129Z,119.13
2019-02-17T14:35:26.662Z,123.67
2019-02-17T14:37:57.180Z,122.83
2019-02-17T14:40:27.593Z,124.63
2019-02-17T14:42:58.314Z,123.33
2019-02-17T14:45:28.869Z,123.77
2019-02-17T14:47:59.386Z,125.30
2019-02-17T14:50:29.936Z,120.83
2019-02-17T14:53:00.455Z,120.17
2019-02-17T14:55:31.235Z,120.20
2019-02-17T14:58:05.450Z,121.17
2019-02-17T15:00:33.930Z,123.13
2019-02-17T15:03:04.550Z,123.47
2019-02-17T15:05:35.107Z,121.53
2019-02-17T15:08:05.717Z,122.90
2019-02-17T15:10:36.262Z,122.67
2019-02-17T15:13:06.839Z,122.40
2019-02-17T15:15:37.344Z,122.37
2019-02-17T15:18:08.073Z,124.57
2019-02-17T15:20:38.622Z,121.47
2019-02-17T15:23:09.181Z,121.63
2019-02-17T15:25:39.657Z,122.67
2019-02-17T15:28:10.161Z,124.10
2019-02-17T15:30:40.950Z,122.30
2019-02-17T15:33:11.512Z,123.57
2019-02-17T15:35:43.460Z,121.93
2019-02-17T15:38:14.063Z,117.87
2019-02-17T15:40:44.586Z,122.33
2019-02-17T15:43:15.187Z,119.90
2019-02-17T15:45:46.045Z,122.57
2019-02-17T15:48:16.433Z,119.37
2019-02-17T15:50:46.881Z,122.50
2019-02-17T15:53:17.420Z,124.63
2019-02-17T15:55:48.021Z,121.97
2019-02-17T15:58:18.504Z,120.60
2019-02-17T16:00:48.949Z,119.57
2019-02-17T16:03:19.464Z,117.87
2019-02-17T16:05:50.121Z,118.27
2019-02-17T16:08:20.649Z,120.83
2019-02-17T16:10:51.136Z,119.10
2019-02-17T16:13:21.723Z,121.00
2019-02-17T16:15:52.196Z,122.77
2019-02-17T16:18:22.697Z,124.37
2019-02-17T16:20:53.187Z,121.93
2019-02-17T16:23:24.039Z,124.23
2019-02-17T16:25:54.779Z,125.83
2019-02-17T16:28:25.204Z,124.23
2019-02-17T16:30:55.625Z,126.60
2019-02-17T16:33:26.222Z,125.03
2019-02-17T16:35:56.887Z,123.67
2019-02-17T16:38:27.388Z,126.43
2019-02-17T16:40:58.161Z,124.30
2019-02-17T16:43:30.294Z,124.70
2019-02-17T16:46:00.869Z,126.37
2019-02-17T16:48:31.704Z,123.23
2019-02-17T16:51:02.194Z,122.70
2019-02-17T16:53:32.736Z,123.07
2019-02-17T16:56:03.352Z,123.77
2019-02-17T16:58:34.101Z,120.37
2019-02-17T17:01:06.641Z,125.23
2019-02-17T17:03:37.270Z,122.40
2019-02-17T17:06:08.840Z,124.70
2019-02-17T17:08:39.816Z,124.43
2019-02-17T17:11:11.549Z,125.03
2019-02-17T17:13:42.335Z,125.10
2019-02-17T17:16:12.993Z,123.57
2019-02-17T17:18:43.589Z,124.77
2019-02-17T17:21:14.177Z,123.77
2019-02-17T17:23:45.653Z,124.20
2019-02-17T17:26:16.213Z,123.60
2019-02-17T17:28:46.691Z,122.10
2019-02-17T17:31:17.232Z,124.73
2019-02-17T17:33:48.913Z,123.63
2019-02-17T17:36:19.910Z,124.60
2019-02-17T17:38:50.455Z,124.57
2019-02-17T17:41:20.970Z,125.63
2019-02-17T17:43:51.845Z,125.13
2019-02-17T17:46:22.489Z,124.47
2019-02-17T17:48:53.070Z,122.73
2019-02-17T17:51:23.607Z,126.30
2019-02-17T17:53:54.306Z,124.37
2019-02-17T17:56:24.716Z,124.47
2019-02-17T17:58:55.283Z,124.13
2019-02-17T18:01:25.913Z,124.90
2019-02-17T18:03:56.441Z,125.43
2019-02-17T18:06:26.874Z,122.97
2019-02-17T18:08:57.508Z,125.23
2019-02-17T18:11:28.168Z,124.93
2019-02-17T18:13:58.752Z,124.43
2019-02-17T18:16:29.281Z,122.10
2019-02-17T18:18:59.986Z,125.33
2019-02-17T18:21:30.461Z,125.57
2019-02-17T18:24:01.126Z,124.03
2019-02-17T18:26:32.600Z,125.23
2019-02-17T18:29:03.124Z,124.00
2019-02-17T18:31:33.817Z,126.20
2019-02-17T18:34:04.496Z,125.53
2019-02-17T18:36:35.082Z,124.20
2019-02-17T18:39:06.923Z,125.47
2019-02-17T18:41:38.571Z,123.50
2019-02-17T18:44:09.206Z,123.47
2019-02-17T18:46:58.800Z,125.17
2019-02-17T18:49:30.965Z,120.60
2019-02-17T18:52:02.046Z,124.47
2019-02-17T18:54:34.837Z,125.53
2019-02-17T18:57:08.153Z,124.83
2019-02-17T18:59:37.992Z,125.20
2019-02-17T19:02:08.745Z,125.63
2019-02-17T19:04:39.343Z,127.77
2019-02-17T19:07:09.969Z,125.17
2019-02-17T19:09:40.613Z,124.83
2019-02-17T19:12:11.378Z,122.93
2019-02-17T19:14:42.039Z,124.03
2019-02-17T19:17:12.745Z,126.17
2019-02-17T19:19:43.291Z,126.30
2019-02-17T19:22:13.946Z,126.67
2019-02-17T19:24:44.580Z,122.47
2019-02-17T19:27:18.261Z,128.10
2019-02-17T19:29:48.915Z,124.93
2019-02-17T19:32:21.429Z,126.40
2019-02-17T19:34:52.236Z,126.07
2019-02-17T19:37:23.049Z,124.27
2019-02-17T19:39:53.860Z,125.33
2019-02-17T19:42:24.589Z,127.33
2019-02-17T19:44:55.374Z,126.13
2019-02-17T19:47:26.095Z,125.07
2019-02-17T19:49:56.880Z,123.13
2019-02-17T19:52:27.558Z,122.30
2019-02-17T19:54:58.264Z,123.53
2019-02-17T19:57:28.964Z,124.20
2019-02-17T19:59:59.522Z,124.20
2019-02-17T20:02:46.727Z,123.77
2019-02-17T20:05:35.491Z,124.57
2019-02-17T20:08:22.640Z,123.33
2019-02-17T20:11:02.168Z,122.43
2019-02-17T20:13:45.986Z,123.53
2019-02-17T20:16:39.012Z,122.00
2019-02-17T20:19:35.117Z,123.07
2019-02-17T20:22:13.272Z,118.30
2019-02-17T20:25:04.195Z,125.20
2019-02-17T20:27:55.913Z,122.70
2019-02-17T20:30:38.432Z,121.93
2019-02-17T20:33:10.884Z,119.73
2019-02-17T20:35:50.471Z,122.97
2019-02-17T20:38:29.870Z,124.47
2019-02-17T20:41:09.876Z,122.00
2019-02-17T20:44:01.815Z,126.10
2019-02-17T20:46:37.122Z,119.80
2019-02-17T20:49:09.688Z,121.63
2019-02-17T20:51:46.681Z,122.33
2019-02-17T20:54:34.420Z,121.53
2019-02-17T20:57:11.521Z,123.37
2019-02-17T20:59:53.612Z,122.93
2019-02-17T21:02:28.244Z,118.80
2019-02-17T21:05:02.980Z,124.47
2019-02-17T21:08:00.284Z,122.43
2019-02-17T21:10:35.324Z,122.33
2019-02-17T21:13:06.184Z,122.70
2019-02-17T21:15:37.194Z,124.40
2019-02-17T21:18:08.202Z,120.23
2019-02-17T21:20:38.833Z,119.37
2019-02-17T21:23:09.576Z,122.97
2019-02-17T21:25:40.161Z,123.77
2019-02-17T21:28:11.384Z,128.33
2019-02-17T21:30:42.294Z,127.90
2019-02-17T21:33:13.326Z,129.73
2019-02-17T21:35:44.108Z,123.30
2019-02-17T21:38:15.231Z,127.13
2019-02-17T21:40:46.173Z,127.67
2019-02-17T21:43:18.360Z,125.40
2019-02-17T21:45:49.158Z,121.60
2019-02-17T21:48:19.880Z,121.77
2019-02-17T21:50:50.529Z,119.57
2019-02-17T21:53:21.274Z,126.67
2019-02-17T21:55:52.149Z,127.07
2019-02-17T21:58:22.952Z,129.70
2019-02-17T22:00:53.534Z,128.33
2019-02-17T22:03:24.506Z,126.10
2019-02-17T22:05:55.479Z,121.83
2019-02-17T22:08:26.067Z,120.93
2019-02-17T22:10:56.867Z,122.63
2019-02-17T22:13:27.856Z,121.07
2019-02-17T22:15:58.427Z,122.57
2019-02-17T22:18:29.870Z,122.27
2019-02-17T22:21:00.750Z,117.80
2019-02-17T22:23:31.442Z,116.90
2019-02-17T22:26:02.352Z,122.20
2019-02-17T22:28:33.341Z,122.47
2019-02-17T22:31:05.296Z,124.53
2019-02-17T22:33:35.945Z,124.90
2019-02-17T22:36:07.646Z,119.80
2019-02-17T22:38:38.375Z,118.90
2019-02-17T22:41:09.513Z,121.80
2019-02-17T22:43:40.641Z,121.83
2019-02-17T22:46:12.040Z,119.53
2019-02-17T22:48:42.926Z,119.00
2019-02-17T22:51:13.666Z,117.53
2019-02-17T22:53:44.375Z,120.17
2019-02-17T22:56:15.095Z,119.03
2019-02-17T22:58:45.836Z,117.03
2019-02-17T23:01:24.373Z,119.83
2019-02-17T23:03:55.003Z,120.53
2019-02-17T23:06:25.870Z,121.00
2019-02-17T23:08:56.831Z,118.37
2019-02-17T23:11:27.493Z,118.43
2019-02-17T23:13:58.487Z,118.50
2019-02-17T23:16:29.196Z,119.30
2019-02-17T23:19:00.297Z,118.87
2019-02-17T23:21:30.827Z,117.23
2019-02-17T23:24:02.039Z,118.30
2019-02-17T23:26:32.681Z,121.37
2019-02-17T23:29:03.485Z,117.63
2019-02-17T23:31:34.171Z,119.77
2019-02-17T23:34:04.742Z,121.93
2019-02-17T23:36:35.305Z,121.27
2019-02-17T23:39:07.699Z,119.53
2019-02-17T23:41:39.315Z,121.17
2019-02-17T23:44:10.071Z,116.60
2019-02-17T23:46:41.728Z,119.27
2019-02-17T23:49:13.141Z,116.27
2019-02-17T23:51:43.631Z,118.67
2019-02-17T23:54:14.316Z,117.53
2019-02-17T23:56:45.042Z,118.07
2019-02-17T23:59:15.571Z,117.17
